createdAt,value
2022-12-17T00:00:52.103Z,22.83
2022-12-17T00:03:37.821Z,22.15
2022-12-17T00:06:23.087Z,23.00
2022-12-17T00:09:04.479Z,21.73
2022-12-17T00:11:49.615Z,21.40
2022-12-17T00:14:44.445Z,21.85
2022-12-17T00:17:29.790Z,20.83
2022-12-17T00:20:15.062Z,20.92
2022-12-17T00:23:00.308Z,21.90
2022-12-17T00:25:45.566Z,21.20
2022-12-17T00:28:30.780Z,21.02
2022-12-17T00:31:17.306Z,20.45
2022-12-17T00:34:02.399Z,19.48
2022-12-17T00:36:47.728Z,19.50
2022-12-17T00:41:58.585Z,17.90
2022-12-17T00:44:43.976Z,17.73
2022-12-17T00:47:30.381Z,19.15
2022-12-17T00:50:15.739Z,18.33
2022-12-17T00:53:15.536Z,17.58
2022-12-17T00:56:00.756Z,16.88
2022-12-17T00:58:45.897Z,15.95
2022-12-17T01:01:31.308Z,16.13
2022-12-17T01:04:17.692Z,16.48
2022-12-17T01:07:02.874Z,15.60
2022-12-17T01:09:48.198Z,15.18
2022-12-17T01:12:33.340Z,15.13
2022-12-17T01:15:18.625Z,14.63
2022-12-17T01:18:03.863Z,14.68
2022-12-17T01:20:50.373Z,14.80
2022-12-17T01:23:35.854Z,14.40
2022-12-17T01:26:20.970Z,14.07
2022-12-17T01:29:06.187Z,13.32
2022-12-17T01:31:51.570Z,13.98
2022-12-17T01:34:36.765Z,13.13
2022-12-17T01:37:23.367Z,12.73
2022-12-17T01:40:08.619Z,12.25
2022-12-17T01:43:08.870Z,12.52
2022-12-17T01:48:39.883Z,11.73
2022-12-17T01:51:25.308Z,11.13
2022-12-17T01:54:11.752Z,11.38
2022-12-17T01:56:59.064Z,11.35
2022-12-17T01:59:47.438Z,10.75
2022-12-17T02:02:32.745Z,9.77
2022-12-17T02:05:17.958Z,11.07
2022-12-17T02:08:08.278Z,10.13
2022-12-17T02:10:58.436Z,10.25
2022-12-17T02:13:52.207Z,10.85
2022-12-17T02:16:39.241Z,10.23
2022-12-17T02:19:26.817Z,10.23
2022-12-17T02:22:13.626Z,10.45
2022-12-17T02:25:17.111Z,9.60
2022-12-17T02:28:03.417Z,11.05
2022-12-17T02:30:48.373Z,10.48
2022-12-17T02:33:34.080Z,11.65
2022-12-17T02:36:22.386Z,11.75
2022-12-17T02:39:07.774Z,11.27
2022-12-17T02:42:04.630Z,11.77
2022-12-17T02:44:51.230Z,12.23
2022-12-17T02:47:36.548Z,12.52
2022-12-17T02:50:21.823Z,12.52
2022-12-17T02:53:07.238Z,13.60
2022-12-17T02:55:52.463Z,13.13
2022-12-17T02:58:37.778Z,13.02
2022-12-17T03:01:24.541Z,13.63
2022-12-17T03:04:09.491Z,13.80
2022-12-17T03:06:54.799Z,13.30
2022-12-17T03:09:40.071Z,14.45
2022-12-17T03:12:25.451Z,14.55
2022-12-17T03:15:10.665Z,14.65
2022-12-17T03:17:57.139Z,13.88
2022-12-17T03:20:53.960Z,14.98
2022-12-17T03:23:39.451Z,15.77
2022-12-17T03:26:24.911Z,15.25
2022-12-17T03:29:10.196Z,14.63
2022-12-17T03:31:55.612Z,15.25
2022-12-17T03:34:42.084Z,16.23
2022-12-17T03:37:27.381Z,16.05
2022-12-17T03:40:12.592Z,16.30
2022-12-17T03:42:57.693Z,16.65
2022-12-17T03:45:43.092Z,16.75
2022-12-17T03:48:29.904Z,16.67
2022-12-17T03:51:16.476Z,16.35
2022-12-17T03:53:57.909Z,16.90
2022-12-17T03:56:43.013Z,16.60
2022-12-17T03:59:28.303Z,16.15
2022-12-17T04:02:13.687Z,16.55
2022-12-17T04:04:59.002Z,16.73
2022-12-17T04:07:45.416Z,15.30
2022-12-17T04:10:30.687Z,16.00
2022-12-17T04:13:15.860Z,15.60
2022-12-17T04:16:01.318Z,15.98
2022-12-17T04:18:46.500Z,15.90
2022-12-17T04:21:31.771Z,15.02
2022-12-17T04:24:14.530Z,14.23
2022-12-17T04:26:59.748Z,15.48
2022-12-17T04:29:45.133Z,14.35
2022-12-17T04:32:35.000Z,14.10
2022-12-17T04:35:20.584Z,14.82
2022-12-17T04:38:05.883Z,13.23
2022-12-17T04:40:52.469Z,14.40
2022-12-17T04:43:38.080Z,13.77
2022-12-17T04:46:23.607Z,12.98
2022-12-17T04:49:10.801Z,13.15
2022-12-17T04:51:56.087Z,13.40
2022-12-17T04:54:41.523Z,12.90
2022-12-17T04:57:27.941Z,12.70
2022-12-17T05:00:13.244Z,11.65
2022-12-17T05:02:58.527Z,11.57
2022-12-17T05:05:45.883Z,10.75
2022-12-17T05:08:31.312Z,11.38
2022-12-17T05:11:19.993Z,10.73
2022-12-17T05:14:06.450Z,10.50
2022-12-17T05:16:51.873Z,10.35
2022-12-17T05:19:37.138Z,9.90
2022-12-17T05:22:22.372Z,9.65
2022-12-17T05:25:07.511Z,10.10
2022-12-17T05:27:52.809Z,9.20
2022-12-17T05:30:39.545Z,10.02
2022-12-17T05:33:24.768Z,9.25
2022-12-17T05:36:09.980Z,8.88
2022-12-17T05:38:55.253Z,8.60
2022-12-17T05:41:40.710Z,8.95
2022-12-17T05:44:26.122Z,8.55
2022-12-17T05:47:12.544Z,8.65
2022-12-17T05:49:57.869Z,8.60
2022-12-17T05:52:43.146Z,8.02
2022-12-17T05:55:28.473Z,8.70
2022-12-17T05:58:28.711Z,8.02
2022-12-17T06:04:00.422Z,8.02
2022-12-17T06:06:45.721Z,7.97
2022-12-17T06:09:31.107Z,8.15
2022-12-17T06:12:16.404Z,8.63
2022-12-17T06:15:01.632Z,8.13
2022-12-17T06:17:46.854Z,7.95
2022-12-17T06:20:33.322Z,7.63
2022-12-17T06:23:18.712Z,7.30
2022-12-17T06:26:03.837Z,8.02
2022-12-17T06:28:49.135Z,7.90
2022-12-17T06:31:34.539Z,7.50
2022-12-17T06:34:19.784Z,8.05
2022-12-17T06:37:06.289Z,7.95
2022-12-17T06:39:51.494Z,7.72
2022-12-17T06:42:36.814Z,7.68
2022-12-17T06:45:22.275Z,7.25
2022-12-17T06:48:07.529Z,7.40
2022-12-17T06:50:52.912Z,7.70
2022-12-17T06:53:39.532Z,8.07
2022-12-17T06:56:25.154Z,8.63
2022-12-17T06:59:10.487Z,7.72
2022-12-17T07:01:55.891Z,7.45
2022-12-17T07:04:41.223Z,7.75
2022-12-17T07:07:26.442Z,8.07
2022-12-17T07:10:14.503Z,8.25
2022-12-17T07:12:59.791Z,7.55
2022-12-17T07:15:45.004Z,7.25
2022-12-17T07:18:30.235Z,8.07
2022-12-17T07:21:15.423Z,7.63
2022-12-17T07:24:00.699Z,7.88
2022-12-17T07:26:47.359Z,7.85
2022-12-17T07:29:32.622Z,8.20
2022-12-17T07:32:17.932Z,7.68
2022-12-17T07:35:03.017Z,6.90
2022-12-17T07:37:48.459Z,6.82
2022-12-17T07:40:33.775Z,7.38
2022-12-17T07:43:20.179Z,7.80
2022-12-17T07:46:05.560Z,7.03
2022-12-17T07:48:50.760Z,7.28
2022-12-17T07:51:36.164Z,7.53
2022-12-17T07:54:21.344Z,7.57
2022-12-17T07:57:06.617Z,7.75
2022-12-17T07:59:53.304Z,7.40
2022-12-17T08:02:38.816Z,7.22
2022-12-17T08:05:35.832Z,7.50
2022-12-17T08:08:25.969Z,7.47
2022-12-17T08:11:11.261Z,7.18
2022-12-17T08:13:56.688Z,7.20
2022-12-17T08:16:43.087Z,7.22
2022-12-17T08:19:30.901Z,7.70
2022-12-17T08:22:30.673Z,8.27
2022-12-17T08:25:15.745Z,7.20
2022-12-17T08:28:01.092Z,7.40
2022-12-17T08:30:49.719Z,6.95
2022-12-17T08:33:36.483Z,7.80
2022-12-17T08:36:21.873Z,7.32
2022-12-17T08:39:07.050Z,7.07
2022-12-17T08:41:54.967Z,7.85
2022-12-17T08:44:41.477Z,7.65
2022-12-17T08:47:26.696Z,7.95
2022-12-17T08:50:13.299Z,7.40
2022-12-17T08:52:58.588Z,7.50
2022-12-17T08:55:43.919Z,8.00
2022-12-17T08:58:29.119Z,10.20
2022-12-17T09:01:16.499Z,26.05
2022-12-17T09:04:01.586Z,58.05
2022-12-17T09:06:48.225Z,127.32
2022-12-17T09:09:33.309Z,128.23
2022-12-17T09:12:18.642Z,130.25
2022-12-17T09:15:03.896Z,115.60
2022-12-17T09:17:49.183Z,102.85
2022-12-17T09:20:34.329Z,89.47
2022-12-17T09:23:20.828Z,75.05
2022-12-17T09:26:11.096Z,73.10
2022-12-17T09:31:41.993Z,66.63
2022-12-17T09:34:27.292Z,64.85
2022-12-17T09:37:12.624Z,61.83
2022-12-17T09:39:59.116Z,57.60
2022-12-17T09:42:50.505Z,55.70
2022-12-17T09:45:39.675Z,54.17
2022-12-17T09:48:30.899Z,52.58
2022-12-17T09:51:17.836Z,49.65
2022-12-17T09:54:03.515Z,47.10
2022-12-17T09:56:50.671Z,45.13
2022-12-17T09:59:38.565Z,44.00
2022-12-17T10:02:30.551Z,42.55
2022-12-17T10:05:15.554Z,41.83
2022-12-17T10:08:09.227Z,39.50
2022-12-17T10:10:54.506Z,38.70
2022-12-17T10:13:41.598Z,37.30
2022-12-17T10:16:37.494Z,36.35
2022-12-17T10:19:22.705Z,33.90
2022-12-17T10:22:07.998Z,35.30
2022-12-17T10:25:02.904Z,33.58
2022-12-17T10:27:48.172Z,32.70
2022-12-17T10:30:35.320Z,31.55
2022-12-17T10:33:23.529Z,30.38
2022-12-17T10:36:08.868Z,29.33
2022-12-17T10:38:54.073Z,28.67
2022-12-17T10:41:40.266Z,29.10
2022-12-17T10:44:41.623Z,26.73
2022-12-17T10:47:31.283Z,25.25
2022-12-17T10:50:17.051Z,26.58
2022-12-17T10:53:02.807Z,24.50
2022-12-17T10:55:48.516Z,24.48
2022-12-17T10:58:34.293Z,23.73
2022-12-17T11:01:19.553Z,22.65
2022-12-17T11:04:09.851Z,21.98
2022-12-17T11:09:46.423Z,21.40
2022-12-17T11:12:31.757Z,21.63
2022-12-17T11:15:19.014Z,20.25
2022-12-17T11:18:09.504Z,19.13
2022-12-17T11:21:03.308Z,20.23
2022-12-17T11:23:48.639Z,20.05
2022-12-17T11:26:33.824Z,19.13
2022-12-17T11:29:19.181Z,18.83
2022-12-17T11:32:17.731Z,17.88
2022-12-17T11:35:11.115Z,17.42
2022-12-17T11:38:00.051Z,17.50
2022-12-17T11:40:53.504Z,18.25
2022-12-17T11:43:40.714Z,17.60
2022-12-17T11:46:35.736Z,17.25
2022-12-17T11:49:24.890Z,16.67
2022-12-17T11:52:12.209Z,15.57
2022-12-17T11:55:02.131Z,15.82
2022-12-17T11:57:50.417Z,14.73
2022-12-17T12:00:36.208Z,15.95
2022-12-17T12:03:27.678Z,14.52
2022-12-17T12:06:14.488Z,13.93
2022-12-17T12:09:14.290Z,14.82
2022-12-17T12:12:02.729Z,13.55
2022-12-17T12:14:51.046Z,12.95
2022-12-17T12:17:57.510Z,12.70
2022-12-17T12:20:53.012Z,12.30
2022-12-17T12:23:41.282Z,12.35
2022-12-17T12:26:29.487Z,12.55
2022-12-17T12:29:18.041Z,12.35
2022-12-17T12:32:04.853Z,12.00
2022-12-17T12:34:50.836Z,11.35
2022-12-17T12:37:33.330Z,11.38
2022-12-17T12:40:23.735Z,11.55
2022-12-17T12:43:11.765Z,10.65
2022-12-17T12:46:01.944Z,10.95
2022-12-17T12:51:38.931Z,10.25
2022-12-17T12:54:41.270Z,10.20
2022-12-17T12:57:44.693Z,10.30
2022-12-17T13:00:55.334Z,11.13
2022-12-17T13:03:49.248Z,9.80
2022-12-17T13:06:41.076Z,10.50
2022-12-17T13:09:23.249Z,9.35
2022-12-17T13:11:51.303Z,9.02
2022-12-17T13:14:20.423Z,9.88
2022-12-17T13:16:52.975Z,9.57
2022-12-17T13:19:33.116Z,8.85
2022-12-17T13:22:11.563Z,9.32
2022-12-17T13:24:39.179Z,9.70
2022-12-17T13:27:26.739Z,9.85
2022-12-17T13:29:54.241Z,9.45
2022-12-17T13:32:23.596Z,9.75
2022-12-17T13:34:59.733Z,8.82
2022-12-17T13:37:31.555Z,9.50
2022-12-17T13:40:02.342Z,9.10
2022-12-17T13:42:30.742Z,9.75
2022-12-17T13:44:58.381Z,8.82
2022-12-17T13:47:27.681Z,9.07
2022-12-17T13:50:32.857Z,9.10
2022-12-17T13:52:44.738Z,6.65
2022-12-17T13:55:19.415Z,8.95
2022-12-17T13:57:47.269Z,9.20
2022-12-17T14:00:20.960Z,8.57
2022-12-17T14:02:48.824Z,9.00
2022-12-17T14:05:26.120Z,9.02
2022-12-17T14:07:53.581Z,8.73
2022-12-17T14:10:21.038Z,7.97
2022-12-17T14:12:47.592Z,8.63
2022-12-17T14:15:21.738Z,7.97
2022-12-17T14:17:49.894Z,7.97
2022-12-17T14:20:18.589Z,9.90
2022-12-17T14:22:51.585Z,9.57
2022-12-17T14:25:20.213Z,9.80
2022-12-17T14:27:53.211Z,9.43
2022-12-17T14:30:24.056Z,9.20
2022-12-17T14:32:51.849Z,10.07
2022-12-17T14:35:26.531Z,9.80
2022-12-17T14:37:55.374Z,8.68
2022-12-17T14:40:25.037Z,8.93
2022-12-17T14:42:52.899Z,8.93
2022-12-17T14:45:24.575Z,8.65
2022-12-17T14:47:56.107Z,9.35
2022-12-17T14:50:29.161Z,8.52
2022-12-17T14:52:58.709Z,8.32
2022-12-17T14:55:28.824Z,8.75
2022-12-17T14:58:09.133Z,9.00
2022-12-17T15:00:38.347Z,8.63
2022-12-17T15:03:06.033Z,9.05
2022-12-17T15:05:33.675Z,8.07
2022-12-17T15:08:02.477Z,8.25
2022-12-17T15:10:29.949Z,8.25
2022-12-17T15:12:58.101Z,8.02
2022-12-17T15:15:25.577Z,8.32
2022-12-17T15:17:53.154Z,7.63
2022-12-17T15:20:21.454Z,7.93
2022-12-17T15:22:48.972Z,7.05
2022-12-17T15:25:19.176Z,8.07
2022-12-17T15:30:14.797Z,7.63
2022-12-17T15:32:42.281Z,8.13
2022-12-17T15:35:10.371Z,8.20
2022-12-17T15:37:37.837Z,8.07
2022-12-17T15:40:05.888Z,8.50
2022-12-17T15:42:52.537Z,7.55
2022-12-17T15:45:19.990Z,8.15
2022-12-17T15:47:47.474Z,8.55
2022-12-17T15:50:14.911Z,8.00
2022-12-17T15:52:42.368Z,8.07
2022-12-17T15:55:10.869Z,7.35
2022-12-17T15:57:39.654Z,8.00
2022-12-17T16:00:08.268Z,8.55
2022-12-17T16:02:35.966Z,8.20
2022-12-17T16:05:03.524Z,8.40
2022-12-17T16:07:30.981Z,7.85
2022-12-17T16:10:04.563Z,8.07
2022-12-17T16:12:32.837Z,7.85
2022-12-17T16:15:01.628Z,8.60
2022-12-17T16:17:29.093Z,8.00
2022-12-17T16:19:56.548Z,8.40
2022-12-17T16:22:24.003Z,7.90
2022-12-17T16:24:52.506Z,8.45
2022-12-17T16:27:20.111Z,8.20
2022-12-17T16:29:48.052Z,8.07
2022-12-17T16:32:16.917Z,8.65
2022-12-17T16:34:44.448Z,7.90
2022-12-17T16:37:12.044Z,8.07
2022-12-17T16:39:39.492Z,7.38
2022-12-17T16:42:07.207Z,8.32
2022-12-17T16:44:34.778Z,7.93
2022-12-17T16:47:02.253Z,8.15
2022-12-17T16:49:31.077Z,9.05
2022-12-17T16:51:59.320Z,7.57
2022-12-17T16:54:28.098Z,8.30
2022-12-17T16:56:55.660Z,8.25
2022-12-17T16:59:23.317Z,8.20
2022-12-17T17:01:51.852Z,8.30
2022-12-17T17:04:20.433Z,8.20
2022-12-17T17:06:50.113Z,7.40
2022-12-17T17:09:18.309Z,8.30
2022-12-17T17:11:50.943Z,7.82
2022-12-17T17:14:19.121Z,7.65
2022-12-17T17:16:46.578Z,7.85
2022-12-17T17:19:14.039Z,7.28
2022-12-17T17:21:51.658Z,7.78
2022-12-17T17:24:21.946Z,7.90
2022-12-17T17:26:50.062Z,7.95
2022-12-17T17:29:17.565Z,7.78
2022-12-17T17:34:32.478Z,8.20
2022-12-17T17:37:01.262Z,7.65
2022-12-17T17:39:31.789Z,7.95
2022-12-17T17:41:59.241Z,7.90
2022-12-17T17:44:26.744Z,7.53
2022-12-17T17:46:54.231Z,8.02
2022-12-17T17:49:22.185Z,7.85
2022-12-17T17:52:09.066Z,7.50
2022-12-17T17:54:39.240Z,8.70
2022-12-17T17:57:06.707Z,8.43
2022-12-17T17:59:34.576Z,8.27
2022-12-17T18:02:02.748Z,8.38
2022-12-17T18:04:30.532Z,8.13
2022-12-17T18:09:46.750Z,8.02
2022-12-17T18:12:37.367Z,8.15
2022-12-17T18:15:14.340Z,8.50
2022-12-17T18:17:43.147Z,8.32
2022-12-17T18:20:11.793Z,7.65
2022-12-17T18:22:39.210Z,8.18
2022-12-17T18:25:08.410Z,7.80
2022-12-17T18:27:35.841Z,8.63
2022-12-17T18:30:03.301Z,8.20
2022-12-17T18:32:30.767Z,8.35
2022-12-17T18:34:58.305Z,8.20
2022-12-17T18:37:25.819Z,8.60
2022-12-17T18:39:53.276Z,8.65
2022-12-17T18:42:39.804Z,9.38
2022-12-17T18:45:08.464Z,9.38
2022-12-17T18:47:35.932Z,8.90
2022-12-17T18:50:03.409Z,8.77
2022-12-17T18:52:30.863Z,8.27
2022-12-17T18:54:58.381Z,8.63
2022-12-17T18:57:27.206Z,8.38
2022-12-17T18:59:54.671Z,8.77
2022-12-17T19:02:22.305Z,8.18
2022-12-17T19:04:49.801Z,8.63
2022-12-17T19:07:17.272Z,8.00
2022-12-17T19:09:44.729Z,8.10
2022-12-17T19:12:12.204Z,8.00
2022-12-17T19:14:40.989Z,8.07
2022-12-17T19:17:08.537Z,7.95
2022-12-17T19:19:35.987Z,8.60
2022-12-17T19:22:03.429Z,7.85
2022-12-17T19:24:30.906Z,7.65
2022-12-17T19:26:58.384Z,7.93
2022-12-17T19:29:25.832Z,7.22
2022-12-17T19:31:54.710Z,7.40
2022-12-17T19:34:22.385Z,8.10
2022-12-17T19:36:49.926Z,7.10
2022-12-17T19:39:18.344Z,7.95
2022-12-17T19:41:45.815Z,7.40
2022-12-17T19:44:14.979Z,7.50
2022-12-17T19:46:42.717Z,7.40
2022-12-17T19:49:13.355Z,7.15
2022-12-17T19:51:42.873Z,7.18
2022-12-17T19:54:11.144Z,6.95
2022-12-17T19:56:38.712Z,6.55
2022-12-17T19:59:07.917Z,6.93
2022-12-17T20:01:36.253Z,6.85
2022-12-17T20:04:03.836Z,6.70
2022-12-17T20:06:33.556Z,6.93
2022-12-17T20:09:01.031Z,6.93
2022-12-17T20:11:34.487Z,6.75
2022-12-17T20:14:03.470Z,6.82
2022-12-17T20:16:31.789Z,6.82
2022-12-17T20:18:59.382Z,6.80
2022-12-17T20:21:26.894Z,6.00
2022-12-17T20:23:55.650Z,6.28
2022-12-17T20:26:23.095Z,6.57
2022-12-17T20:28:50.612Z,6.38
2022-12-17T20:31:18.206Z,6.93
2022-12-17T20:33:45.703Z,6.82
2022-12-17T20:36:14.087Z,6.25
2022-12-17T20:38:42.397Z,6.25
2022-12-17T20:41:11.878Z,6.13
2022-12-17T20:43:39.320Z,6.43
2022-12-17T20:46:07.222Z,6.70
2022-12-17T20:48:34.756Z,6.43
2022-12-17T20:51:05.781Z,6.38
2022-12-17T20:53:34.196Z,6.38
2022-12-17T20:56:02.264Z,5.88
2022-12-17T20:58:31.036Z,5.90
2022-12-17T21:01:05.855Z,6.35
2022-12-17T21:03:33.456Z,6.10
2022-12-17T21:06:08.488Z,6.43
2022-12-17T21:08:36.176Z,5.95
2022-12-17T21:11:03.871Z,6.25
2022-12-17T21:13:32.652Z,5.95
2022-12-17T21:16:01.187Z,6.35
2022-12-17T21:18:29.034Z,5.90
2022-12-17T21:20:58.348Z,5.75
2022-12-17T21:23:25.903Z,6.23
2022-12-17T21:26:01.117Z,5.55
2022-12-17T21:28:29.241Z,5.63
2022-12-17T21:30:58.104Z,6.05
2022-12-17T21:33:25.628Z,6.47
2022-12-17T21:35:58.891Z,6.47
2022-12-17T21:38:26.392Z,6.95
2022-12-17T21:40:53.826Z,6.50
2022-12-17T21:43:21.436Z,6.97
2022-12-17T21:45:48.993Z,6.43
2022-12-17T21:48:17.792Z,6.95
2022-12-17T21:50:45.510Z,6.97
2022-12-17T21:53:13.665Z,7.22
2022-12-17T21:55:41.848Z,6.93
2022-12-17T21:58:10.225Z,7.53
2022-12-17T22:00:38.218Z,7.43
2022-12-17T22:03:05.676Z,7.07
2022-12-17T22:05:36.371Z,6.85
2022-12-17T22:08:03.949Z,6.60
2022-12-17T22:10:50.949Z,6.32
2022-12-17T22:13:37.049Z,6.18
2022-12-17T22:16:06.666Z,6.70
2022-12-17T22:18:34.238Z,6.03
2022-12-17T22:21:03.168Z,5.90
2022-12-17T22:23:31.688Z,5.95
2022-12-17T22:25:59.511Z,5.50
2022-12-17T22:28:27.132Z,5.18
2022-12-17T22:31:12.603Z,5.40
2022-12-17T22:33:47.951Z,5.88
2022-12-17T22:39:19.247Z,5.47
2022-12-17T22:43:10.062Z,4.90
2022-12-17T22:44:46.296Z,5.28
2022-12-17T22:45:12.788Z,4.97
2022-12-17T22:47:40.964Z,5.15
2022-12-17T22:50:08.858Z,5.38
2022-12-17T22:52:38.046Z,5.53
2022-12-17T22:55:06.835Z,5.60
2022-12-17T22:57:38.228Z,4.90
2022-12-17T23:00:09.484Z,4.95
2022-12-17T23:02:37.561Z,4.80
2022-12-17T23:05:05.465Z,5.13
2022-12-17T23:07:32.937Z,5.10
2022-12-17T23:10:01.894Z,5.15
2022-12-17T23:12:47.257Z,4.72
2022-12-17T23:15:14.710Z,5.15
2022-12-17T23:17:42.163Z,4.82
2022-12-17T23:20:10.619Z,4.85
2022-12-17T23:22:38.077Z,5.20
2022-12-17T23:25:07.357Z,5.25
2022-12-17T23:27:34.944Z,4.87
2022-12-17T23:30:02.379Z,4.57
2022-12-17T23:32:29.828Z,4.97
2022-12-17T23:34:57.261Z,4.18
2022-12-17T23:37:24.749Z,5.00
2022-12-17T23:39:52.216Z,4.90
2022-12-17T23:42:20.982Z,5.32
2022-12-17T23:44:48.449Z,5.00
2022-12-17T23:47:15.929Z,5.20
2022-12-17T23:49:43.461Z,5.40
2022-12-17T23:52:10.915Z,5.72
2022-12-17T23:54:38.370Z,6.60
2022-12-17T23:57:05.839Z,6.60
2022-12-17T23:59:34.635Z,6.95
